YBHM

Hamilton Island Airport

Hamilton Island, Australia
TAF YBHM 162306Z 1700/1712 12014KT 9999 SCT025 FM170600 10018KT 9999 SCT025
Issued Valid From Valid To
Jan-16 @ 23:06 UTC
(6 hours ago)
Jan-17 @ 00:00 UTC
(5 hours ago)
Jan-17 @ 12:00 UTC
(in 7 hours)
Jan-17 @ 00:00 to Jan-17 @ 06:00
TAF YBHM 162306Z 1700/1712 12014KT 9999 SCT025
Wind Visibility Clouds
120° at 14 knots 10,000+ meters
  • Scattered at 2,500' AGL
From Jan-17 @ 06:00 to Jan-17 @ 12:00
FM170600 10018KT 9999 SCT025
Wind Visibility Clouds
100° at 18 knots 10,000+ meters
  • Scattered at 2,500' AGL
TAF YBHM 162306Z 1700/1712 12014KT 9999 SCT025 FM170600 10018KT 9999 SCT025
Issued Jan-16 @ 23:06 UTC
(6 hours ago)
Valid From Jan-17 @ 00:00 UTC
(5 hours ago)
Valid To Jan-17 @ 12:00 UTC
(in 7 hours)
Jan-17 @ 00:00 - Jan-17 @ 06:00
Wind Visibility
120° at 14 knots 10,000+ meters
Clouds
  • Scattered at 2,500' AGL
From Jan-17 @ 06:00 - Jan-17 @ 12:00
Wind Visibility
100° at 18 knots 10,000+ meters
Clouds
  • Scattered at 2,500' AGL